createdAt,value
2018-07-09T00:02:23.263Z,21.85
2018-07-09T00:04:51.716Z,22.02
2018-07-09T00:07:20.339Z,21.98
2018-07-09T00:09:48.811Z,21.68
2018-07-09T00:12:17.244Z,21.62
2018-07-09T00:14:45.821Z,21.58
2018-07-09T00:17:14.495Z,21.54
2018-07-09T00:19:42.980Z,21.39
2018-07-09T00:22:11.398Z,21.32
2018-07-09T00:24:41.181Z,21.23
2018-07-09T00:27:09.812Z,21.25
2018-07-09T00:29:38.333Z,21.27
2018-07-09T00:32:06.752Z,21.18
2018-07-09T00:34:35.204Z,20.99
2018-07-09T00:37:03.683Z,21.02
2018-07-09T00:39:32.119Z,20.97
2018-07-09T00:42:01.611Z,20.88
2018-07-09T00:44:30.104Z,20.69
2018-07-09T00:46:58.569Z,20.72
2018-07-09T00:49:27.018Z,20.67
2018-07-09T00:51:55.726Z,20.57
2018-07-09T00:54:24.700Z,20.45
2018-07-09T00:56:53.187Z,20.56
2018-07-09T00:59:21.883Z,20.65
2018-07-09T01:01:50.360Z,20.64
2018-07-09T01:04:18.804Z,20.62
2018-07-09T01:06:47.223Z,20.52
2018-07-09T01:09:15.696Z,20.45
2018-07-09T01:11:46.420Z,20.33
2018-07-09T01:14:15.071Z,20.29
2018-07-09T01:16:43.559Z,20.37
2018-07-09T01:19:12.063Z,20.34
2018-07-09T01:21:40.498Z,20.21
2018-07-09T01:24:08.940Z,20.08
2018-07-09T01:26:37.424Z,20.28
2018-07-09T01:29:05.947Z,20.05
2018-07-09T01:31:34.597Z,20.18
2018-07-09T01:34:03.035Z,20.18
2018-07-09T01:36:31.476Z,20.18
2018-07-09T01:38:59.883Z,20.23
2018-07-09T01:41:28.315Z,20.16
2018-07-09T01:43:56.752Z,20.14
2018-07-09T01:46:25.424Z,20.06
2018-07-09T01:48:53.904Z,20.00
2018-07-09T01:51:22.308Z,19.88
2018-07-09T01:53:50.715Z,18.99
2018-07-09T01:56:19.137Z,18.45
2018-07-09T01:58:54.186Z,18.08
2018-07-09T02:01:22.647Z,18.13
2018-07-09T02:03:51.701Z,18.06
2018-07-09T02:06:20.455Z,17.97
2018-07-09T02:08:49.153Z,18.01
2018-07-09T02:11:17.600Z,18.02
2018-07-09T02:13:46.052Z,18.00
2018-07-09T02:16:14.516Z,17.90
2018-07-09T02:18:43.175Z,17.82
2018-07-09T02:21:11.634Z,17.80
2018-07-09T02:23:40.393Z,17.83
2018-07-09T02:26:08.892Z,17.71
2018-07-09T02:28:37.396Z,17.72
2018-07-09T02:31:06.055Z,17.61
2018-07-09T02:33:34.479Z,17.51
2018-07-09T02:36:02.915Z,17.58
2018-07-09T02:38:31.391Z,17.54
2018-07-09T02:40:59.844Z,17.68
2018-07-09T02:43:28.324Z,17.68
2018-07-09T02:45:57.150Z,17.66
2018-07-09T02:48:25.570Z,17.61
2018-07-09T02:50:54.148Z,17.61
2018-07-09T02:53:22.792Z,17.53
2018-07-09T02:55:51.268Z,17.54
2018-07-09T02:58:19.705Z,18.53
2018-07-09T03:00:48.228Z,18.14
2018-07-09T03:03:16.596Z,19.92
2018-07-09T03:05:45.062Z,20.75
2018-07-09T03:08:13.791Z,20.42
2018-07-09T03:10:42.272Z,19.70
2018-07-09T03:13:11.031Z,20.19
2018-07-09T03:15:39.520Z,20.81
2018-07-09T03:18:07.997Z,19.74
2018-07-09T03:20:36.452Z,20.01
2018-07-09T03:23:04.916Z,18.81
2018-07-09T03:25:33.351Z,20.27
2018-07-09T03:28:01.771Z,19.55
2018-07-09T03:30:30.388Z,19.43
2018-07-09T03:32:58.827Z,18.53
2018-07-09T03:35:27.332Z,18.42
2018-07-09T03:37:55.763Z,20.35
2018-07-09T03:40:24.188Z,19.91
2018-07-09T03:42:52.934Z,18.61
2018-07-09T03:45:21.348Z,18.32
2018-07-09T03:47:49.798Z,18.21
2018-07-09T03:50:18.429Z,17.92
2018-07-09T03:52:46.913Z,17.69
2018-07-09T03:55:15.369Z,17.80
2018-07-09T03:57:43.810Z,17.78
2018-07-09T04:00:12.345Z,17.73
2018-07-09T04:02:40.753Z,17.82
2018-07-09T04:05:09.216Z,17.94
2018-07-09T04:07:37.663Z,17.96
2018-07-09T04:10:06.138Z,18.08
2018-07-09T04:12:34.600Z,18.10
2018-07-09T04:15:03.039Z,18.16
2018-07-09T04:17:31.461Z,18.06
2018-07-09T04:20:00.154Z,18.08
2018-07-09T04:22:28.540Z,17.95
2018-07-09T04:24:57.050Z,17.79
2018-07-09T04:27:25.460Z,17.78
2018-07-09T04:29:53.948Z,17.77
2018-07-09T04:32:22.452Z,17.84
2018-07-09T04:34:50.874Z,17.87
2018-07-09T04:37:19.336Z,17.76
2018-07-09T04:39:47.807Z,17.95
2018-07-09T04:42:16.270Z,17.71
2018-07-09T04:44:44.722Z,17.82
2018-07-09T04:47:13.943Z,17.96
2018-07-09T04:49:42.430Z,17.86
2018-07-09T04:52:10.895Z,17.96
2018-07-09T04:54:39.319Z,17.73
2018-07-09T04:57:07.768Z,18.14
2018-07-09T04:59:36.211Z,18.19
2018-07-09T05:02:04.717Z,18.22
2018-07-09T05:04:33.179Z,18.20
2018-07-09T05:07:01.851Z,18.27
2018-07-09T05:09:30.291Z,18.44
2018-07-09T05:11:58.745Z,18.58
2018-07-09T05:14:27.192Z,18.64
2018-07-09T05:16:55.628Z,18.75
2018-07-09T05:19:24.058Z,18.89
2018-07-09T05:21:52.552Z,18.98
2018-07-09T05:24:21.007Z,19.23
2018-07-09T05:26:49.695Z,19.51
2018-07-09T05:29:18.221Z,19.72
2018-07-09T05:31:46.666Z,19.66
2018-07-09T05:34:15.108Z,21.31
2018-07-09T05:36:43.535Z,21.36
2018-07-09T05:39:11.991Z,20.24
2018-07-09T05:42:42.928Z,21.41
2018-07-09T05:45:11.378Z,21.29
2018-07-09T05:51:11.155Z,20.37
2018-07-09T05:53:39.559Z,20.07
2018-07-09T05:56:08.039Z,20.11
2018-07-09T05:58:36.526Z,20.91
2018-07-09T06:01:05.091Z,20.36
2018-07-09T06:03:33.581Z,20.12
2018-07-09T06:06:02.068Z,20.29
2018-07-09T06:08:30.465Z,20.18
2018-07-09T06:10:58.968Z,20.39
2018-07-09T06:13:27.445Z,20.34
2018-07-09T06:15:55.999Z,20.60
2018-07-09T06:18:24.432Z,20.70
2018-07-09T06:20:53.056Z,20.68
2018-07-09T06:23:21.496Z,20.82
2018-07-09T06:25:50.114Z,20.84
2018-07-09T06:28:18.584Z,21.20
2018-07-09T06:30:47.060Z,21.34
2018-07-09T06:33:15.496Z,21.37
2018-07-09T06:35:44.019Z,21.28
2018-07-09T06:38:12.482Z,21.31
2018-07-09T06:40:40.951Z,21.31
2018-07-09T06:43:09.448Z,21.52
2018-07-09T06:45:38.103Z,21.47
2018-07-09T06:48:06.759Z,21.58
2018-07-09T06:50:35.211Z,21.84
2018-07-09T06:53:03.664Z,22.17
2018-07-09T06:55:32.096Z,22.11
2018-07-09T06:58:00.640Z,22.34
2018-07-09T07:00:29.979Z,22.33
2018-07-09T07:02:58.412Z,22.39
2018-07-09T07:05:26.863Z,22.48
2018-07-09T07:07:55.311Z,22.48
2018-07-09T07:10:24.079Z,22.47
2018-07-09T07:12:52.495Z,22.53
2018-07-09T07:15:20.983Z,22.47
2018-07-09T07:17:49.418Z,22.92
2018-07-09T07:20:17.884Z,23.03
2018-07-09T07:22:46.326Z,23.31
2018-07-09T07:25:14.902Z,23.22
2018-07-09T07:27:43.621Z,23.42
2018-07-09T07:30:12.056Z,23.38
2018-07-09T07:32:40.466Z,23.36
2018-07-09T07:35:09.005Z,24.73
2018-07-09T07:37:37.427Z,24.47
2018-07-09T07:40:06.184Z,23.67
2018-07-09T07:42:34.701Z,23.87
2018-07-09T07:45:03.215Z,23.88
2018-07-09T07:47:31.679Z,23.99
2018-07-09T07:50:00.427Z,23.87
2018-07-09T07:52:28.883Z,24.08
2018-07-09T07:54:57.300Z,24.30
2018-07-09T07:57:25.795Z,24.29
2018-07-09T07:59:54.195Z,24.30
2018-07-09T08:02:22.651Z,24.43
2018-07-09T08:04:51.124Z,24.51
2018-07-09T08:07:19.541Z,24.91
2018-07-09T08:09:48.007Z,24.60
2018-07-09T08:13:00.544Z,24.64
2018-07-09T08:14:44.919Z,24.87
2018-07-09T08:17:13.413Z,24.94
2018-07-09T08:19:41.874Z,24.88
2018-07-09T08:22:10.290Z,25.05
2018-07-09T08:24:38.772Z,24.99
2018-07-09T08:27:07.249Z,25.32
2018-07-09T08:29:35.760Z,25.86
2018-07-09T08:32:04.196Z,25.68
2018-07-09T08:34:32.664Z,26.00
2018-07-09T08:37:01.126Z,25.79
2018-07-09T08:39:29.531Z,25.74
2018-07-09T08:41:58.017Z,25.33
2018-07-09T08:44:26.443Z,26.01
2018-07-09T08:46:54.886Z,26.19
2018-07-09T08:49:23.348Z,25.30
2018-07-09T08:51:51.775Z,26.22
2018-07-09T08:54:20.236Z,25.46
2018-07-09T08:56:48.644Z,26.13
2018-07-09T08:59:17.087Z,26.17
2018-07-09T09:01:45.528Z,26.42
2018-07-09T09:04:13.985Z,26.60
2018-07-09T09:06:42.425Z,26.50
2018-07-09T09:09:10.980Z,26.54
2018-07-09T09:11:39.403Z,27.14
2018-07-09T09:14:07.865Z,27.16
2018-07-09T09:16:36.380Z,26.67
2018-07-09T09:19:04.804Z,26.34
2018-07-09T09:21:33.245Z,25.73
2018-07-09T09:24:01.730Z,26.22
2018-07-09T09:26:30.161Z,26.35
2018-07-09T09:28:58.604Z,26.65
2018-07-09T09:31:27.155Z,26.35
2018-07-09T09:33:55.575Z,27.20
2018-07-09T09:36:24.049Z,27.15
2018-07-09T09:38:52.526Z,26.64
2018-07-09T09:41:20.980Z,26.53
2018-07-09T09:43:50.440Z,26.74
2018-07-09T09:46:18.849Z,25.86
2018-07-09T09:48:47.284Z,25.95
2018-07-09T09:51:15.787Z,26.29
2018-07-09T09:53:44.250Z,26.61
2018-07-09T09:56:13.009Z,26.30
2018-07-09T09:58:41.476Z,26.68
2018-07-09T10:01:09.974Z,26.42
2018-07-09T10:03:38.401Z,26.44
2018-07-09T10:06:06.901Z,26.20
2018-07-09T10:08:35.402Z,26.54
2018-07-09T10:11:03.911Z,26.23
2018-07-09T10:13:32.344Z,26.04
2018-07-09T10:16:01.520Z,26.13
2018-07-09T10:18:29.981Z,26.81
2018-07-09T10:22:01.238Z,27.29
2018-07-09T10:24:29.700Z,27.33
2018-07-09T10:26:58.159Z,28.05
2018-07-09T10:29:26.558Z,27.41
2018-07-09T10:31:55.914Z,28.05
2018-07-09T10:34:24.383Z,26.87
2018-07-09T10:36:53.072Z,26.62
2018-07-09T10:39:21.625Z,26.29
2018-07-09T10:41:50.051Z,26.83
2018-07-09T10:44:18.519Z,27.19
2018-07-09T10:46:46.964Z,28.03
2018-07-09T10:49:15.420Z,27.71
2018-07-09T10:51:43.818Z,27.87
2018-07-09T10:54:12.330Z,28.28
2018-07-09T10:56:40.843Z,27.23
2018-07-09T10:59:09.499Z,26.65
2018-07-09T11:01:38.023Z,26.63
2018-07-09T11:04:06.937Z,26.08
2018-07-09T11:06:35.571Z,25.52
2018-07-09T11:09:05.052Z,25.91
2018-07-09T11:11:33.519Z,25.83
2018-07-09T11:14:01.932Z,25.93
2018-07-09T11:16:30.368Z,25.83
2018-07-09T11:18:59.354Z,25.71
2018-07-09T11:21:27.809Z,25.73
2018-07-09T11:23:56.248Z,25.89
2018-07-09T11:26:24.775Z,26.01
2018-07-09T11:28:53.530Z,26.42
2018-07-09T11:31:21.941Z,25.46
2018-07-09T11:33:50.380Z,25.92
2018-07-09T11:36:18.858Z,26.31
2018-07-09T11:38:47.279Z,26.86
2018-07-09T11:41:15.687Z,27.32
2018-07-09T11:43:44.169Z,27.23
2018-07-09T11:46:12.604Z,26.60
2018-07-09T11:48:41.047Z,27.65
2018-07-09T11:51:09.520Z,28.48
2018-07-09T11:53:38.212Z,29.83
2018-07-09T11:56:06.636Z,29.13
2018-07-09T11:58:35.330Z,30.22
2018-07-09T12:01:03.782Z,31.25
2018-07-09T12:03:32.223Z,31.78
2018-07-09T12:06:00.627Z,31.50
2018-07-09T12:08:29.080Z,31.00
2018-07-09T12:10:57.526Z,30.87
2018-07-09T12:13:26.065Z,30.71
2018-07-09T12:15:54.500Z,31.61
2018-07-09T12:18:22.975Z,31.01
2018-07-09T12:20:51.407Z,29.87
2018-07-09T12:23:19.847Z,29.25
2018-07-09T12:25:48.310Z,29.86
2018-07-09T12:28:17.025Z,30.97
2018-07-09T12:30:45.960Z,31.44
2018-07-09T12:33:14.443Z,32.57
2018-07-09T12:35:43.110Z,32.05
2018-07-09T12:38:11.561Z,31.91
2018-07-09T12:40:40.028Z,32.42
2018-07-09T12:43:08.880Z,32.03
2018-07-09T12:45:37.394Z,32.48
2018-07-09T12:48:06.237Z,31.58
2018-07-09T12:50:34.688Z,33.39
2018-07-09T12:53:03.347Z,33.41
2018-07-09T12:55:31.774Z,32.67
2018-07-09T12:58:00.351Z,31.88
2018-07-09T13:00:28.803Z,31.94
2018-07-09T13:02:57.242Z,32.41
2018-07-09T13:05:25.715Z,30.02
2018-07-09T13:07:54.417Z,31.81
2018-07-09T13:10:22.840Z,32.04
2018-07-09T13:12:51.267Z,32.35
2018-07-09T13:15:19.752Z,32.59
2018-07-09T13:17:48.215Z,32.94
2018-07-09T13:20:16.771Z,33.17
2018-07-09T13:22:45.471Z,31.13
2018-07-09T13:25:14.014Z,31.81
2018-07-09T13:27:42.659Z,33.00
2018-07-09T13:30:11.286Z,31.23
2018-07-09T13:32:39.891Z,32.54
2018-07-09T13:35:08.351Z,31.44
2018-07-09T13:37:36.906Z,32.69
2018-07-09T13:40:05.368Z,32.60
2018-07-09T13:42:33.878Z,32.40
2018-07-09T13:45:02.445Z,32.17
2018-07-09T13:47:30.838Z,32.33
2018-07-09T13:49:59.315Z,32.81
2018-07-09T13:52:27.896Z,32.57
2018-07-09T13:54:56.388Z,31.64
2018-07-09T13:57:25.119Z,31.60
2018-07-09T13:59:53.654Z,30.80
2018-07-09T14:02:22.035Z,31.43
2018-07-09T14:04:50.471Z,31.88
2018-07-09T14:07:19.264Z,31.92
2018-07-09T14:09:48.009Z,31.95
2018-07-09T14:12:16.440Z,31.94
2018-07-09T14:14:44.851Z,33.90
2018-07-09T14:17:13.742Z,32.62
2018-07-09T14:20:20.267Z,32.48
2018-07-09T14:22:48.721Z,33.78
2018-07-09T14:25:17.583Z,31.58
2018-07-09T14:27:46.006Z,31.95
2018-07-09T14:30:14.488Z,32.67
2018-07-09T14:32:43.420Z,32.44
2018-07-09T14:35:11.953Z,32.94
2018-07-09T14:37:40.364Z,32.50
2018-07-09T14:40:08.803Z,32.89
2018-07-09T14:42:37.239Z,33.29
2018-07-09T14:45:06.010Z,33.46
2018-07-09T14:47:34.502Z,32.65
2018-07-09T14:50:03.134Z,31.93
2018-07-09T14:52:31.774Z,33.28
2018-07-09T14:55:00.370Z,32.49
2018-07-09T14:57:28.856Z,32.60
2018-07-09T14:59:57.311Z,32.61
2018-07-09T15:02:25.713Z,30.20
2018-07-09T15:04:54.151Z,30.44
2018-07-09T15:07:22.919Z,29.01
2018-07-09T15:09:51.356Z,29.87
2018-07-09T15:12:20.199Z,30.71
2018-07-09T15:14:48.747Z,31.26
2018-07-09T15:17:17.463Z,30.24
2018-07-09T15:19:45.939Z,31.50
2018-07-09T15:22:14.419Z,31.37
2018-07-09T15:24:42.940Z,30.41
2018-07-09T15:27:11.376Z,31.31
2018-07-09T15:29:40.162Z,31.04
2018-07-09T15:32:19.738Z,30.55
2018-07-09T15:34:48.160Z,30.25
2018-07-09T15:37:16.891Z,30.05
2018-07-09T15:39:45.276Z,29.70
2018-07-09T15:42:13.766Z,28.52
2018-07-09T15:44:42.803Z,29.43
2018-07-09T15:47:11.670Z,29.38
2018-07-09T15:49:40.784Z,29.19
2018-07-09T15:52:09.202Z,29.11
2018-07-09T15:54:37.684Z,28.79
2018-07-09T15:57:06.145Z,29.12
2018-07-09T15:59:34.888Z,29.30
2018-07-09T16:02:03.368Z,27.93
2018-07-09T16:04:31.779Z,28.36
2018-07-09T16:07:00.397Z,28.19
2018-07-09T16:09:29.701Z,27.91
2018-07-09T16:11:58.131Z,28.14
2018-07-09T16:14:26.787Z,28.02
2018-07-09T16:16:55.236Z,27.58
2018-07-09T16:19:23.897Z,27.54
2018-07-09T16:21:52.792Z,27.31
2018-07-09T16:24:21.232Z,27.64
2018-07-09T16:26:49.756Z,27.65
2018-07-09T16:29:18.251Z,27.70
2018-07-09T16:31:46.768Z,27.44
2018-07-09T16:34:15.699Z,27.71
2018-07-09T16:36:44.124Z,27.94
2018-07-09T16:39:12.727Z,27.74
2018-07-09T16:41:41.171Z,27.26
2018-07-09T16:44:09.952Z,27.55
2018-07-09T16:46:38.468Z,26.80
2018-07-09T16:49:06.960Z,26.97
2018-07-09T16:51:35.416Z,27.05
2018-07-09T16:54:03.963Z,26.78
2018-07-09T16:56:32.480Z,26.99
2018-07-09T16:59:00.912Z,27.84
2018-07-09T17:01:29.309Z,29.02
2018-07-09T17:03:57.778Z,28.34
2018-07-09T17:06:26.482Z,28.76
2018-07-09T17:08:54.895Z,28.33
2018-07-09T17:11:23.366Z,27.40
2018-07-09T17:13:51.839Z,26.90
2018-07-09T17:16:20.294Z,26.98
2018-07-09T17:18:48.808Z,26.68
2018-07-09T17:21:17.427Z,26.86
2018-07-09T17:23:46.107Z,26.63
2018-07-09T17:26:14.616Z,26.93
2018-07-09T17:28:43.133Z,26.67
2018-07-09T17:31:11.984Z,26.87
2018-07-09T17:33:40.479Z,26.73
2018-07-09T17:36:08.977Z,27.11
2018-07-09T17:38:37.441Z,27.45
2018-07-09T17:41:06.287Z,27.20
2018-07-09T17:43:34.977Z,26.84
2018-07-09T17:46:03.662Z,26.47
2018-07-09T17:48:32.057Z,26.63
2018-07-09T17:51:00.767Z,26.77
2018-07-09T17:53:29.299Z,26.60
2018-07-09T17:55:57.803Z,26.42
2018-07-09T17:58:26.253Z,26.45
2018-07-09T18:00:55.052Z,26.35
2018-07-09T18:03:23.480Z,26.38
2018-07-09T18:05:51.942Z,27.11
2018-07-09T18:08:20.776Z,27.33
2018-07-09T18:10:49.436Z,27.27
2018-07-09T18:13:17.898Z,27.18
2018-07-09T18:15:46.439Z,27.04
2018-07-09T18:18:14.855Z,26.86
2018-07-09T18:20:43.563Z,26.94
2018-07-09T18:23:12.012Z,26.74
2018-07-09T18:25:40.630Z,26.63
2018-07-09T18:28:09.052Z,26.68
2018-07-09T18:30:37.591Z,26.48
2018-07-09T18:33:06.515Z,26.50
2018-07-09T18:35:35.133Z,26.29
2018-07-09T18:38:03.863Z,26.32
2018-07-09T18:40:32.291Z,26.30
2018-07-09T18:43:00.715Z,26.25
2018-07-09T18:45:29.235Z,26.33
2018-07-09T18:47:57.674Z,26.28
2018-07-09T18:50:26.200Z,26.15
2018-07-09T18:52:54.706Z,26.14
2018-07-09T18:55:23.206Z,26.15
2018-07-09T18:57:51.678Z,26.04
2018-07-09T19:00:20.188Z,25.92
2018-07-09T19:02:48.654Z,25.99
2018-07-09T19:05:17.287Z,25.96
2018-07-09T19:07:45.896Z,25.83
2018-07-09T19:10:14.572Z,25.81
2018-07-09T19:12:43.198Z,25.81
2018-07-09T19:15:11.648Z,25.50
2018-07-09T19:17:52.978Z,25.49
2018-07-09T19:20:32.845Z,25.32
2018-07-09T19:23:00.089Z,25.23
2018-07-09T19:25:27.675Z,25.13
2018-07-09T19:27:54.923Z,25.13
2018-07-09T19:30:22.148Z,25.18
2018-07-09T19:32:49.400Z,25.00
2018-07-09T19:35:17.073Z,24.99
2018-07-09T19:37:45.890Z,24.97
2018-07-09T19:40:12.875Z,24.95
2018-07-09T19:42:40.134Z,25.02
2018-07-09T19:45:07.423Z,24.67
2018-07-09T19:47:34.639Z,24.37
2018-07-09T19:50:01.919Z,24.63
2018-07-09T19:52:29.996Z,24.56
2018-07-09T19:54:57.275Z,24.44
2018-07-09T19:57:24.502Z,24.61
2018-07-09T19:59:51.729Z,24.66
2018-07-09T20:02:19.019Z,24.54
2018-07-09T20:04:46.318Z,24.52
2018-07-09T20:07:13.566Z,24.50
2018-07-09T20:09:46.165Z,24.43
2018-07-09T20:12:18.757Z,24.34
2018-07-09T20:14:51.326Z,24.20
2018-07-09T20:17:27.742Z,24.26
2018-07-09T20:19:55.036Z,24.26
2018-07-09T20:22:22.256Z,23.59
2018-07-09T20:24:49.484Z,24.04
2018-07-09T20:27:16.743Z,24.08
2018-07-09T20:29:43.968Z,24.07
2018-07-09T20:32:11.228Z,24.06
2018-07-09T20:34:38.520Z,24.03
2018-07-09T20:37:05.784Z,24.12
2018-07-09T20:39:33.000Z,24.15
2018-07-09T20:42:00.248Z,24.27
2018-07-09T20:44:27.503Z,24.23
2018-07-09T20:46:54.752Z,24.15
2018-07-09T20:49:21.991Z,23.90
2018-07-09T20:51:49.231Z,23.99
2018-07-09T20:54:16.462Z,23.16
2018-07-09T20:56:43.728Z,23.48
2018-07-09T20:59:10.983Z,23.67
2018-07-09T21:01:38.215Z,24.21
2018-07-09T21:04:10.642Z,24.09
2018-07-09T21:06:37.915Z,24.07
2018-07-09T21:09:05.538Z,24.15
2018-07-09T21:11:32.767Z,23.92
2018-07-09T21:14:00.023Z,24.11
2018-07-09T21:16:27.248Z,23.85
2018-07-09T21:18:54.501Z,23.82
2018-07-09T21:21:26.138Z,23.84
2018-07-09T21:23:53.791Z,23.98
2018-07-09T21:26:21.107Z,23.90
2018-07-09T21:28:48.722Z,23.72
2018-07-09T21:31:15.951Z,23.76
2018-07-09T21:33:43.636Z,23.55
2018-07-09T21:36:11.451Z,23.67
2018-07-09T21:38:39.135Z,23.76
2018-07-09T21:41:06.359Z,23.60
2018-07-09T21:43:33.681Z,23.54
2018-07-09T21:46:00.864Z,23.43
2018-07-09T21:48:29.795Z,23.32
2018-07-09T21:50:55.969Z,23.42
2018-07-09T21:53:24.267Z,23.47
2018-07-09T21:55:51.764Z,23.51
2018-07-09T21:58:19.003Z,23.48
2018-07-09T22:00:46.263Z,22.93
2018-07-09T22:03:13.495Z,22.90
2018-07-09T22:05:40.771Z,22.85
2018-07-09T22:08:07.997Z,23.02
2018-07-09T22:10:35.237Z,22.78
2018-07-09T22:13:02.487Z,22.86
2018-07-09T22:15:29.707Z,22.52
2018-07-09T22:17:56.987Z,23.15
2018-07-09T22:20:24.242Z,22.98
2018-07-09T22:22:51.475Z,22.85
2018-07-09T22:25:18.733Z,22.86
2018-07-09T22:27:45.955Z,22.90
2018-07-09T22:30:13.237Z,22.82
2018-07-09T22:32:41.871Z,23.12
2018-07-09T22:35:10.346Z,23.22
2018-07-09T22:37:38.798Z,23.28
2018-07-09T22:40:07.253Z,23.34
2018-07-09T22:42:35.708Z,23.21
2018-07-09T22:45:04.147Z,22.93
2018-07-09T22:47:32.640Z,23.00
2018-07-09T22:50:01.060Z,22.79
2018-07-09T22:52:29.478Z,23.00
2018-07-09T22:55:08.940Z,22.86
2018-07-09T22:57:37.352Z,23.00
2018-07-09T23:00:05.815Z,23.29
2018-07-09T23:03:37.166Z,23.23
2018-07-09T23:06:05.750Z,23.35
2018-07-09T23:08:34.260Z,23.09
2018-07-09T23:13:46.524Z,23.11
2018-07-09T23:16:50.156Z,23.20
2018-07-09T23:19:31.061Z,23.09
2018-07-09T23:22:10.547Z,22.71
2018-07-09T23:24:37.804Z,23.22
2018-07-09T23:27:05.056Z,23.06
2018-07-09T23:29:32.282Z,23.08
2018-07-09T23:31:59.541Z,22.62
2018-07-09T23:34:26.766Z,22.54
2018-07-09T23:36:54.108Z,22.64
2018-07-09T23:39:21.606Z,22.51
2018-07-09T23:41:48.836Z,22.35
2018-07-09T23:44:16.115Z,22.33
2018-07-09T23:46:43.363Z,22.25
2018-07-09T23:49:10.626Z,22.15
2018-07-09T23:51:37.901Z,22.50
2018-07-09T23:54:05.149Z,22.76
2018-07-09T23:57:44.930Z,22.67
